Time;durP1;ratioP1;P1;durP2;ratioP2;P2;SDS_P1;SDS_P2;PMS_P1;PMS_P2;Temp;Humidity;BMP_temperature;BMP_pressure;BME280_temperature;BME280_humidity;BME280_pressure;Samples;Min_cycle;Max_cycle;Signal;HPM_P1;HPM_P2
2020/12/14 00:01:56;;;;;;;3.63;0.20;;;;;;;7.60;100.00;97483.06;4995184;28;20049;-78
2020/12/14 00:04:59;;;;;;;1.58;0.60;;;;;;;7.57;100.00;97486.13;4996788;28;20114;-78
2020/12/14 00:08:03;;;;;;;11.23;0.93;;;;;;;7.54;100.00;97489.91;4995468;28;20057;-76
2020/12/14 00:11:05;;;;;;;0.45;0.45;;;;;;;7.60;100.00;97482.34;4993731;28;20704;-79
2020/12/14 00:14:08;;;;;;;0.57;0.30;;;;;;;7.62;100.00;97475.00;5003793;28;20532;-79
2020/12/14 00:17:11;;;;;;;4.18;0.80;;;;;;;7.65;100.00;97467.69;5014004;28;20040;-81
2020/12/14 00:20:14;;;;;;;8.77;0.98;;;;;;;7.77;100.00;97446.19;5014230;28;20052;-79
2020/12/14 00:23:17;;;;;;;1.85;0.73;;;;;;;7.77;100.00;97457.28;5014606;28;20160;-77
2020/12/14 00:26:20;;;;;;;4.03;0.77;;;;;;;7.69;100.00;97462.59;5014583;28;20052;-77
2020/12/14 00:29:23;;;;;;;4.60;0.80;;;;;;;7.63;100.00;97476.50;5001591;28;20511;-74
2020/12/14 00:32:26;;;;;;;5.28;0.85;;;;;;;7.49;100.00;97476.84;5017276;28;20814;-77
2020/12/14 00:35:29;;;;;;;5.57;0.38;;;;;;;7.42;100.00;97477.41;5019190;28;20153;-77
2020/12/14 00:38:32;;;;;;;2.00;1.35;;;;;;;7.42;100.00;97472.63;5014962;28;20071;-76
2020/12/14 00:41:35;;;;;;;0.10;0.00;;;;;;;7.34;100.00;97465.38;5014224;28;21008;-76
2020/12/14 00:44:38;;;;;;;0.57;0.08;;;;;;;7.29;100.00;97463.38;5002281;28;20051;-76
2020/12/14 00:47:41;;;;;;;2.55;0.63;;;;;;;7.29;100.00;97458.59;5014102;28;20055;-76
2020/12/14 00:50:45;;;;;;;1.25;0.63;;;;;;;7.33;100.00;97472.16;5013877;28;20106;-76
2020/12/14 00:53:48;;;;;;;2.85;0.28;;;;;;;7.27;100.00;97466.66;5015117;28;20102;-76
2020/12/14 00:56:52;;;;;;;0.82;0.82;;;;;;;7.24;100.00;97466.91;5013322;28;20047;-76
2020/12/14 00:59:54;;;;;;;0.43;0.43;;;;;;;7.20;100.00;97467.19;5014392;28;20055;-76
2020/12/14 01:02:58;;;;;;;5.93;1.08;;;;;;;7.18;100.00;97463.41;5015870;28;20181;-77
2020/12/14 01:06:01;;;;;;;0.38;0.10;;;;;;;7.20;100.00;97469.97;5002020;28;21121;-78
2020/12/14 01:09:04;;;;;;;2.10;0.65;;;;;;;7.23;100.00;97460.66;5001847;28;20068;-77
2020/12/14 01:12:07;;;;;;;6.10;0.30;;;;;;;7.20;100.00;97452.59;5013325;28;20338;-75
2020/12/14 01:15:10;;;;;;;4.25;1.10;;;;;;;7.16;100.00;97452.88;5011120;28;21109;-76
2020/12/14 01:18:13;;;;;;;2.38;0.93;;;;;;;7.20;100.00;97436.75;5014491;28;20047;-75
2020/12/14 01:21:20;;;;;;;0.10;0.00;;;;;;;7.27;100.00;97416.84;5016772;28;20071;-76
2020/12/14 01:24:23;;;;;;;0.17;0.10;;;;;;;7.25;100.00;97430.44;5014419;28;20056;-75
2020/12/14 01:27:27;;;;;;;0.20;0.20;;;;;;;7.17;100.00;97418.38;5013083;28;20083;-75
2020/12/14 01:30:29;;;;;;;12.27;0.95;;;;;;;7.16;100.00;97422.44;5015065;28;20161;-75
2020/12/14 01:33:32;;;;;;;0.10;0.10;;;;;;;7.21;100.00;97429.19;5013151;28;20392;-75
2020/12/14 01:36:35;;;;;;;0.57;0.32;;;;;;;7.22;100.00;97414.06;5014722;28;20044;-75
2020/12/14 01:39:38;;;;;;;0.10;0.05;;;;;;;7.22;100.00;97408.53;5016751;28;20409;-75
2020/12/14 01:42:44;;;;;;;4.65;1.05;;;;;;;7.23;100.00;97405.28;5012772;28;20133;-74
2020/12/14 01:45:47;;;;;;;1.95;0.30;;;;;;;7.23;100.00;97405.28;5013266;28;21002;-75
2020/12/14 01:48:49;;;;;;;2.22;0.63;;;;;;;7.26;100.00;97428.41;5014633;28;20099;-74
2020/12/14 01:51:53;;;;;;;0.55;0.40;;;;;;;7.24;100.00;97417.84;5011475;28;20059;-75
2020/12/14 01:55:00;;;;;;;7.07;0.65;;;;;;;7.26;100.00;97423.63;5014650;28;20512;-75
2020/12/14 01:58:03;;;;;;;18.95;1.33;;;;;;;7.25;100.00;97430.44;5016434;28;20499;-75
2020/12/14 02:01:06;;;;;;;7.38;1.10;;;;;;;7.33;100.00;97436.91;5016193;28;20616;-75
2020/12/14 02:04:09;;;;;;;12.85;0.40;;;;;;;7.36;100.00;97430.34;5037127;28;20079;-74
2020/12/14 02:07:12;;;;;;;0.28;0.15;;;;;;;7.39;100.00;97434.88;5052986;28;20590;-74
2020/12/14 02:10:14;;;;;;;0.28;0.17;;;;;;;7.44;100.00;97425.78;5052646;28;20512;-77
2020/12/14 02:13:17;;;;;;;3.30;0.98;;;;;;;7.52;100.00;97426.72;5052603;28;20094;-74
2020/12/14 02:16:20;;;;;;;9.82;0.88;;;;;;;7.54;100.00;97424.19;5052985;28;20056;-77
2020/12/14 02:19:23;;;;;;;1.13;0.38;;;;;;;7.49;100.00;97411.13;5052527;28;20047;-76
2020/12/14 02:22:27;;;;;;;2.28;0.55;;;;;;;7.52;100.00;97409.34;5051975;28;20131;-77
2020/12/14 02:25:30;;;;;;;0.52;0.20;;;;;;;7.53;100.00;97416.41;5052440;28;20048;-77
2020/12/14 02:28:33;;;;;;;8.45;0.20;;;;;;;7.54;100.00;97413.13;5052342;28;20052;-77
2020/12/14 02:31:36;;;;;;;6.72;0.52;;;;;;;7.55;100.00;97409.09;5051891;28;20056;-74
2020/12/14 02:34:42;;;;;;;2.17;0.55;;;;;;;7.57;100.00;97411.34;5052446;28;20048;-77
2020/12/14 02:37:45;;;;;;;0.45;0.28;;;;;;;7.56;100.00;97410.59;5052363;28;20067;-77
2020/12/14 02:40:49;;;;;;;0.10;0.05;;;;;;;7.54;100.00;97415.88;5052404;28;20052;-77
2020/12/14 02:43:51;;;;;;;6.15;0.52;;;;;;;7.56;100.00;97426.44;5052298;28;20402;-74
2020/12/14 02:46:54;;;;;;;4.00;0.55;;;;;;;7.54;100.00;97418.66;5052244;28;20060;-74
2020/12/14 02:49:57;;;;;;;1.48;0.43;;;;;;;7.57;100.00;97406.56;5051465;28;20097;-77
2020/12/14 02:53:04;;;;;;;4.20;0.22;;;;;;;7.55;100.00;97409.09;5051019;28;20136;-77
2020/12/14 02:56:07;;;;;;;0.20;0.10;;;;;;;7.50;100.00;97412.66;5051700;28;20052;-77
2020/12/14 02:59:13;;;;;;;1.50;0.77;;;;;;;7.47;100.00;97419.19;5051939;28;20405;-77
2020/12/14 03:02:15;;;;;;;1.85;0.98;;;;;;;7.45;100.00;97394.03;5051526;28;20091;-76
2020/12/14 03:05:18;;;;;;;1.75;0.15;;;;;;;7.45;100.00;97424.50;5052017;28;20044;-75
2020/12/14 03:08:21;;;;;;;0.15;0.15;;;;;;;7.41;100.00;97421.25;5052015;28;20500;-74
2020/12/14 03:11:25;;;;;;;8.35;0.30;;;;;;;7.35;100.00;97426.09;5051790;28;20048;-75
2020/12/14 03:14:28;;;;;;;1.65;0.45;;;;;;;7.29;100.00;97419.06;5051816;28;20100;-76
2020/12/14 03:17:32;;;;;;;1.17;0.30;;;;;;;7.22;100.00;97420.38;5051633;28;20127;-76
2020/12/14 03:20:34;;;;;;;2.15;0.30;;;;;;;7.16;100.00;97430.72;5039428;28;20132;-75
2020/12/14 03:23:37;;;;;;;0.50;0.38;;;;;;;7.20;100.00;97449.81;5051729;28;20044;-76
2020/12/14 03:26:40;;;;;;;1.10;0.50;;;;;;;7.29;100.00;97430.16;5051737;28;20507;-78
2020/12/14 03:29:43;;;;;;;1.73;0.28;;;;;;;7.34;100.00;97432.88;5052012;28;20044;-78
2020/12/14 03:32:46;;;;;;;0.77;0.32;;;;;;;7.37;100.00;97442.94;5051825;28;20546;-76
2020/12/14 03:35:49;;;;;;;1.27;0.30;;;;;;;7.45;100.00;97449.41;5054142;28;20055;-77
2020/12/14 03:38:54;;;;;;;0.10;0.10;;;;;;;7.50;100.00;97451.41;5056070;28;20167;-77
2020/12/14 03:41:57;;;;;;;0.90;0.00;;;;;;;7.52;100.00;97468.28;5055438;28;20052;-77
2020/12/14 03:45:00;;;;;;;3.70;0.65;;;;;;;7.58;100.00;97457.91;5055531;28;20071;-76
2020/12/14 03:48:03;;;;;;;1.65;0.77;;;;;;;7.52;100.00;97448.88;5055711;28;20497;-76
2020/12/14 03:51:08;;;;;;;1.40;0.43;;;;;;;7.47;100.00;97441.34;5055385;28;20538;-76
2020/12/14 03:54:12;;;;;;;10.23;1.20;;;;;;;7.39;100.00;97423.78;5055524;28;20501;-76
2020/12/14 03:57:16;;;;;;;2.22;0.45;;;;;;;7.30;100.00;97437.94;5055246;28;20126;-78
2020/12/14 04:00:19;;;;;;;1.27;0.45;;;;;;;7.24;100.00;97426.16;5055291;28;20051;-78
2020/12/14 04:03:24;;;;;;;0.00;0.00;;;;;;;7.18;100.00;97419.13;5042877;28;20055;-76
2020/12/14 04:06:28;;;;;;;0.10;0.10;;;;;;;7.13;100.00;97417.16;5055301;28;20167;-76
2020/12/14 04:09:30;;;;;;;0.28;0.28;;;;;;;7.12;100.00;97408.13;5055190;28;20094;-76
2020/12/14 04:12:35;;;;;;;3.08;0.63;;;;;;;7.11;100.00;97414.91;5054923;28;20064;-79
2020/12/14 04:15:38;;;;;;;0.85;0.38;;;;;;;7.07;100.00;97414.41;5034692;28;20124;-78
2020/12/14 04:18:41;;;;;;;0.00;0.00;;;;;;;7.15;100.00;97420.16;5034970;28;20099;-78
2020/12/14 04:21:44;;;;;;;15.30;0.63;;;;;;;7.05;100.00;97427.25;5034821;28;20072;-78
2020/12/14 04:24:47;;;;;;;0.95;0.08;;;;;;;6.85;100.00;97440.16;5022583;28;20103;-78
2020/12/14 04:27:49;;;;;;;0.10;0.00;;;;;;;6.77;100.00;97441.22;5034631;28;20505;-78
2020/12/14 04:30:52;;;;;;;4.82;1.48;;;;;;;6.78;100.00;97442.69;5034733;28;20044;-78
2020/12/14 04:33:55;;;;;;;0.88;0.45;;;;;;;6.73;100.00;97435.19;5035092;28;20048;-78
2020/12/14 04:36:58;;;;;;;0.40;0.28;;;;;;;6.72;100.00;97455.81;5034889;28;20131;-78
2020/12/14 04:40:01;;;;;;;0.10;0.08;;;;;;;6.79;100.00;97453.28;5034345;28;20183;-77
2020/12/14 04:43:07;;;;;;;9.52;1.10;;;;;;;6.91;100.00;97445.66;5034526;28;20072;-78
2020/12/14 04:46:11;;;;;;;1.52;0.50;;;;;;;6.95;100.00;97446.19;5033966;28;20406;-78
2020/12/14 04:49:14;;;;;;;2.50;1.10;;;;;;;6.95;100.00;97437.13;5034186;28;20061;-77
2020/12/14 04:52:17;;;;;;;14.20;1.02;;;;;;;6.98;100.00;97447.16;5033618;28;20044;-78
2020/12/14 04:55:22;;;;;;;0.35;0.22;;;;;;;7.10;100.00;97449.38;5034062;28;20080;-78
2020/12/14 04:58:25;;;;;;;0.00;0.00;;;;;;;7.15;100.00;97445.06;5034291;28;20143;-77
2020/12/14 05:01:29;;;;;;;3.35;0.20;;;;;;;7.23;100.00;97443.28;5034260;28;20473;-78
2020/12/14 05:04:32;;;;;;;1.02;0.73;;;;;;;7.32;100.00;97446.47;5034084;28;20048;-79
2020/12/14 05:07:43;;;;;;;0.10;0.10;;;;;;;7.34;100.00;97455.03;5034112;28;20091;-79
2020/12/14 05:10:46;;;;;;;0.40;0.32;;;;;;;7.34;100.00;97448.75;5033710;28;20052;-79
2020/12/14 05:13:49;;;;;;;0.10;0.10;;;;;;;7.33;100.00;97453.53;5039496;28;20055;-79
2020/12/14 05:16:52;;;;;;;0.88;0.05;;;;;;;7.33;100.00;97447.25;5053926;28;20047;-78
2020/12/14 05:19:55;;;;;;;0.95;0.43;;;;;;;7.35;100.00;97461.31;5053612;28;20087;-78
2020/12/14 05:23:04;;;;;;;19.60;0.75;;;;;;;7.32;100.00;97459.59;5053581;28;20060;-76
2020/12/14 05:26:14;;;;;;;14.00;0.75;;;;;;;7.31;100.00;97469.91;5053077;28;20538;-79
2020/12/14 05:29:18;;;;;;;12.13;0.93;;;;;;;7.32;100.00;97474.16;5030138;28;20516;-79
2020/12/14 05:32:21;;;;;;;0.20;0.20;;;;;;;7.28;100.00;97470.91;5033723;28;20052;-78
2020/12/14 05:35:33;;;;;;;0.10;0.00;;;;;;;7.11;100.00;97464.72;5033190;28;20068;-79
2020/12/14 05:38:35;;;;;;;9.45;0.32;;;;;;;6.91;100.00;97478.88;5032744;28;20500;-79
2020/12/14 05:41:38;;;;;;;0.10;0.10;;;;;;;6.85;100.00;97475.38;5033102;28;20060;-78
2020/12/14 05:44:43;;;;;;;2.92;0.47;;;;;;;6.82;100.00;97482.66;5033071;28;20052;-79
2020/12/14 05:47:46;;;;;;;0.38;0.38;;;;;;;6.82;100.00;97473.63;5033324;28;20094;-78
2020/12/14 05:50:51;;;;;;;2.08;0.30;;;;;;;6.84;100.00;97471.13;5033472;28;20107;-79
2020/12/14 05:54:02;;;;;;;0.10;0.00;;;;;;;6.78;100.00;97482.19;5032943;28;20094;-79
2020/12/14 05:57:05;;;;;;;6.05;0.45;;;;;;;6.84;100.00;97490.47;5032653;28;20045;-79
2020/12/14 06:00:10;;;;;;;2.25;0.55;;;;;;;6.88;100.00;97490.97;5032988;28;20504;-79
2020/12/14 06:03:13;;;;;;;9.90;1.15;;;;;;;6.94;100.00;97510.31;5032854;28;20052;-79
2020/12/14 06:06:18;;;;;;;5.25;0.38;;;;;;;6.98;100.00;97508.78;5033096;28;20458;-82
2020/12/14 06:09:21;;;;;;;0.28;0.20;;;;;;;6.97;100.00;97515.59;5033137;28;20048;-80
2020/12/14 06:12:29;;;;;;;0.10;0.10;;;;;;;7.00;100.00;97520.09;5032457;28;20076;-79
2020/12/14 06:15:33;;;;;;;1.35;0.43;;;;;;;6.99;100.00;97515.84;5039923;28;20453;-79
2020/12/14 06:18:37;;;;;;;0.73;0.20;;;;;;;6.97;100.00;97515.59;5040296;28;20150;-80
2020/12/14 06:21:47;;;;;;;0.10;0.00;;;;;;;6.89;100.00;97518.13;5052655;28;20532;-80
2020/12/14 06:24:57;;;;;;;8.77;1.58;;;;;;;6.86;100.00;97521.88;5040025;28;20060;-80
2020/12/14 06:28:29;;;;;;;9.30;0.73;;;;;;;6.86;100.00;97521.88;5040238;28;20102;-80
2020/12/14 06:31:36;;;;;;;4.28;0.80;;;;;;;6.84;100.00;97518.88;5052796;28;20071;-80
2020/12/14 06:34:39;;;;;;;0.20;0.10;;;;;;;6.84;100.00;97529.94;5039903;28;20187;-79
2020/12/14 06:37:51;;;;;;;5.53;1.40;;;;;;;6.84;100.00;97540.28;5039888;28;20048;-79
2020/12/14 06:40:56;;;;;;;8.68;0.63;;;;;;;6.78;100.00;97536.75;5037953;28;20190;-78
2020/12/14 06:44:07;;;;;;;24.23;0.80;;;;;;;6.64;100.00;97532.25;5049033;28;20133;-77
2020/12/14 06:47:15;;;;;;;0.60;0.28;;;;;;;6.53;100.00;97544.09;5051714;28;20044;-76
2020/12/14 06:50:25;;;;;;;1.10;0.60;;;;;;;6.52;100.00;97558.44;5049036;28;20043;-76
2020/12/14 06:53:52;;;;;;;0.98;0.38;;;;;;;6.53;100.00;97554.38;5050423;28;20098;-78
2020/12/14 06:57:01;;;;;;;0.20;0.13;;;;;;;6.55;100.00;97562.94;5048202;28;20132;-79
2020/12/14 07:00:05;;;;;;;0.30;0.20;;;;;;;6.45;100.00;97564.47;5049910;28;20055;-78
2020/12/14 07:03:28;;;;;;;0.30;0.00;;;;;;;6.29;100.00;97577.00;5050078;28;20106;-80
2020/12/14 07:06:31;;;;;;;7.13;0.28;;;;;;;6.20;100.00;97576.50;5050919;28;20086;-80
2020/12/14 07:09:40;;;;;;;7.72;0.43;;;;;;;6.17;100.00;97577.50;5044181;28;20048;-77
2020/12/14 07:12:45;;;;;;;0.25;0.10;;;;;;;6.25;100.00;97573.75;5051619;28;20551;-77
2020/12/14 07:16:05;;;;;;;4.25;0.77;;;;;;;6.32;100.00;97580.78;5031850;28;20052;-76
2020/12/14 07:19:08;;;;;;;1.83;0.70;;;;;;;6.41;100.00;97580.53;5031652;28;20100;-77
2020/12/14 07:22:14;;;;;;;1.00;0.63;;;;;;;6.47;100.00;97573.00;5031404;28;20548;-77
2020/12/14 07:25:22;;;;;;;0.10;0.10;;;;;;;6.53;100.00;97582.03;5032151;28;20194;-78
2020/12/14 07:28:40;;;;;;;0.10;0.08;;;;;;;6.51;100.00;97579.03;5032014;28;20176;-78
2020/12/14 07:31:43;;;;;;;0.65;0.65;;;;;;;6.46;100.00;97577.00;5032215;28;20061;-78
2020/12/14 07:34:52;;;;;;;1.77;0.63;;;;;;;6.46;100.00;97572.25;5031510;28;20049;-78
2020/12/14 07:37:56;;;;;;;2.00;0.57;;;;;;;6.54;100.00;97580.78;5031696;28;20103;-78
2020/12/14 07:41:06;;;;;;;0.20;0.10;;;;;;;6.49;100.00;97584.31;5031562;28;20091;-78
2020/12/14 07:44:09;;;;;;;0.30;0.17;;;;;;;6.48;100.00;97596.59;5031839;28;20092;-77
2020/12/14 07:47:20;;;;;;;8.63;0.63;;;;;;;6.45;100.00;97600.41;5031538;28;20056;-78
2020/12/14 07:50:25;;;;;;;0.55;0.10;;;;;;;6.43;100.00;97594.63;5031432;28;20084;-78
2020/12/14 07:53:28;;;;;;;0.30;0.30;;;;;;;6.41;100.00;97597.13;5031031;28;20053;-81
2020/12/14 07:56:37;;;;;;;0.35;0.32;;;;;;;6.41;100.00;97603.38;5031384;28;20060;-77
2020/12/14 07:59:40;;;;;;;0.45;0.45;;;;;;;6.44;100.00;97607.16;5031466;28;20103;-78
2020/12/14 08:02:44;;;;;;;4.90;0.77;;;;;;;6.45;100.00;97625.28;5031365;28;20047;-78
2020/12/14 08:05:47;;;;;;;0.08;0.00;;;;;;;6.43;100.00;97627.78;5031512;28;20049;-77
2020/12/14 08:08:50;;;;;;;0.95;0.68;;;;;;;6.42;100.00;97626.25;5031759;28;20108;-78
2020/12/14 08:11:54;;;;;;;3.30;0.30;;;;;;;6.31;100.00;97637.31;5031256;28;20461;-78
2020/12/14 08:14:58;;;;;;;0.38;0.38;;;;;;;6.27;100.00;97637.56;5045371;28;20051;-77
2020/12/14 08:18:05;;;;;;;0.20;0.20;;;;;;;6.26;100.00;97646.38;5051238;28;20171;-78
2020/12/14 08:21:07;;;;;;;9.07;0.20;;;;;;;6.23;100.00;97647.34;5052165;28;20137;-78
2020/12/14 08:24:11;;;;;;;1.20;0.55;;;;;;;6.23;100.00;97655.66;5055281;28;20052;-80
2020/12/14 08:27:14;;;;;;;1.45;0.30;;;;;;;6.29;100.00;97656.41;5054560;28;20056;-79
2020/12/14 08:30:19;;;;;;;1.42;0.80;;;;;;;6.39;100.00;97660.47;5042349;28;20397;-79
2020/12/14 08:33:22;;;;;;;1.70;0.45;;;;;;;6.37;100.00;97665.72;5054764;28;20083;-79
2020/12/14 08:36:25;;;;;;;4.30;0.60;;;;;;;6.35;100.00;97676.50;5054519;28;20078;-80
2020/12/14 08:39:28;;;;;;;6.55;0.17;;;;;;;6.31;100.00;97676.00;5042216;28;20114;-77
2020/12/14 08:42:32;;;;;;;0.63;0.35;;;;;;;6.32;100.00;97688.59;5054307;28;20147;-77
2020/12/14 08:45:39;;;;;;;0.00;0.00;;;;;;;6.33;100.00;97690.84;5054426;28;20186;-77
2020/12/14 08:48:44;;;;;;;14.60;0.43;;;;;;;6.24;100.00;97698.63;5054225;28;20064;-78
2020/12/14 08:51:48;;;;;;;1.48;0.30;;;;;;;6.22;100.00;97701.09;5053713;28;20047;-76
2020/12/14 08:54:56;;;;;;;0.20;0.20;;;;;;;6.33;100.00;97701.13;5051303;28;20040;-76
2020/12/14 08:57:59;;;;;;;10.88;0.35;;;;;;;6.33;100.00;97704.66;5051929;28;20063;-76
2020/12/14 09:01:09;;;;;;;2.53;0.15;;;;;;;6.37;100.00;97707.94;5053011;28;20099;-76
2020/12/14 09:04:12;;;;;;;8.27;0.70;;;;;;;6.43;100.00;97710.72;5051629;28;20179;-76
2020/12/14 09:07:25;;;;;;;0.45;0.20;;;;;;;6.52;100.00;97711.22;5053646;28;20691;-77
2020/12/14 09:10:28;;;;;;;6.70;0.52;;;;;;;6.51;100.00;97706.97;5053821;28;20500;-76
2020/12/14 09:13:32;;;;;;;5.30;0.40;;;;;;;6.44;100.00;97717.75;5053691;28;20072;-75
2020/12/14 09:16:36;;;;;;;0.63;0.13;;;;;;;6.46;100.00;97723.53;5053958;28;20126;-75
2020/12/14 09:19:39;;;;;;;0.90;0.28;;;;;;;6.52;100.00;97729.84;5053562;28;20056;-75
2020/12/14 09:22:45;;;;;;;0.10;0.00;;;;;;;6.61;100.00;97724.81;5053909;28;20115;-76
2020/12/14 09:25:48;;;;;;;2.50;0.52;;;;;;;6.71;100.00;97730.88;5053562;28;20055;-77
2020/12/14 09:28:51;;;;;;;1.52;0.40;;;;;;;6.80;100.00;97728.63;5053533;28;20072;-78
2020/12/14 09:31:56;;;;;;;3.38;0.85;;;;;;;6.86;100.00;97736.94;5051605;28;20140;-75
2020/12/14 09:34:59;;;;;;;0.63;0.30;;;;;;;6.83;100.00;97740.69;5052643;28;20401;-77
2020/12/14 09:38:01;;;;;;;1.30;0.55;;;;;;;6.79;100.00;97754.03;5050875;28;20048;-75
2020/12/14 09:41:05;;;;;;;0.73;0.25;;;;;;;6.76;100.00;97760.53;5053421;28;20086;-77
2020/12/14 09:44:08;;;;;;;2.90;0.63;;;;;;;6.74;100.00;97744.47;5053210;28;20052;-77
2020/12/14 09:47:11;;;;;;;2.75;0.60;;;;;;;6.77;100.00;97751.00;5053238;28;20044;-77
2020/12/14 09:50:14;;;;;;;5.63;0.43;;;;;;;6.76;100.00;97749.47;5040513;28;20075;-77
2020/12/14 09:53:17;;;;;;;0.10;0.00;;;;;;;6.80;100.00;97744.44;5053177;28;20463;-78
2020/12/14 09:56:20;;;;;;;4.15;0.73;;;;;;;6.86;100.00;97748.00;5052667;28;20501;-77
2020/12/14 09:59:23;;;;;;;0.77;0.45;;;;;;;6.91;100.00;97755.53;5047492;28;20528;-76
2020/12/14 10:02:26;;;;;;;0.57;0.10;;;;;;;7.01;100.00;97756.81;5051335;28;20103;-78
2020/12/14 10:05:28;;;;;;;6.85;0.40;;;;;;;7.16;100.00;97757.31;5052253;28;20138;-76
2020/12/14 10:08:31;;;;;;;0.93;0.50;;;;;;;7.16;100.00;97765.63;5052274;28;20106;-75
2020/12/14 10:11:36;;;;;;;1.65;0.20;;;;;;;7.12;100.00;97770.66;5052666;28;20081;-74
2020/12/14 10:14:39;;;;;;;1.40;0.35;;;;;;;7.03;100.00;97768.13;5052969;28;20072;-77
2020/12/14 10:17:42;;;;;;;1.40;0.32;;;;;;;6.99;100.00;97762.09;5052712;28;20089;-77
2020/12/14 10:20:45;;;;;;;3.80;0.95;;;;;;;7.00;100.00;97769.13;5052568;28;20095;-77
2020/12/14 10:23:48;;;;;;;1.00;0.38;;;;;;;7.11;100.00;97771.91;5052496;28;20513;-79
2020/12/14 10:26:51;;;;;;;11.82;0.52;;;;;;;7.15;100.00;97786.25;5053491;28;20048;-75
2020/12/14 10:29:54;;;;;;;0.20;0.20;;;;;;;7.18;100.00;97790.03;5051901;28;20051;-75
2020/12/14 10:32:57;;;;;;;3.15;0.32;;;;;;;7.09;100.00;97791.03;5051025;28;20044;-76
2020/12/14 10:36:11;;;;;;;8.43;0.32;;;;;;;7.15;100.00;97785.50;5050881;28;20082;-76
2020/12/14 10:39:15;;;;;;;0.20;0.20;;;;;;;7.31;100.00;97793.81;5050171;28;20455;-77
2020/12/14 10:42:17;;;;;;;0.95;0.30;;;;;;;7.61;100.00;97794.03;5038661;28;20056;-77
2020/12/14 10:45:20;;;;;;;0.55;0.45;;;;;;;7.57;100.00;97788.78;5052661;28;20048;-76
2020/12/14 10:48:24;;;;;;;2.67;0.40;;;;;;;7.51;100.00;97785.22;5053102;28;20110;-77
2020/12/14 10:51:26;;;;;;;1.25;0.60;;;;;;;7.51;100.00;97793.53;5051971;28;20047;-76
2020/12/14 10:54:29;;;;;;;1.88;0.38;;;;;;;7.47;100.00;97790.28;5052194;28;20554;-76
2020/12/14 10:57:32;;;;;;;9.70;2.03;;;;;;;7.51;100.00;97790.03;5052010;28;20056;-75
2020/12/14 11:00:35;;;;;;;4.38;0.55;;;;;;;7.63;100.00;97786.75;5052015;28;20075;-75
2020/12/14 11:03:39;;;;;;;7.93;1.27;;;;;;;7.57;100.00;97777.69;5051903;28;20091;-75
2020/12/14 11:06:42;;;;;;;0.30;0.10;;;;;;;7.48;100.00;97780.72;5051711;28;20052;-76
2020/12/14 11:09:45;;;;;;;0.30;0.20;;;;;;;7.36;100.00;97790.28;5051907;28;20079;-75
2020/12/14 11:12:48;;;;;;;5.95;0.60;;;;;;;7.26;100.00;97785.50;5051760;28;20056;-74
2020/12/14 11:15:51;;;;;;;3.83;0.40;;;;;;;7.12;100.00;97801.09;5031899;28;20136;-74
2020/12/14 11:18:54;;;;;;;4.47;0.73;;;;;;;7.02;100.00;97788.03;5032033;28;20088;-75
2020/12/14 11:21:57;;;;;;;2.20;0.30;;;;;;;6.96;100.00;97793.53;5031983;28;20044;-76
2020/12/14 11:25:00;;;;;;;2.75;0.40;;;;;;;6.92;100.00;97800.56;5032012;28;20119;-78
2020/12/14 11:28:04;;;;;;;3.80;0.80;;;;;;;6.86;100.00;97808.88;5032028;28;20103;-76
2020/12/14 11:31:07;;;;;;;0.65;0.43;;;;;;;6.88;100.00;97812.66;5031949;28;20144;-78
2020/12/14 11:34:11;;;;;;;0.10;0.10;;;;;;;6.94;100.00;97809.88;5032340;28;20059;-76
2020/12/14 11:37:14;;;;;;;0.20;0.10;;;;;;;6.98;100.00;97810.38;5029497;28;20052;-76
2020/12/14 11:40:17;;;;;;;3.22;0.30;;;;;;;7.02;100.00;97799.09;5030664;28;20573;-76
2020/12/14 11:43:20;;;;;;;0.52;0.20;;;;;;;7.00;100.00;97796.03;5031695;28;20149;-75
2020/12/14 11:46:23;;;;;;;1.95;0.20;;;;;;;6.93;100.00;97794.53;5031849;28;20053;-76
2020/12/14 11:49:26;;;;;;;0.30;0.20;;;;;;;6.93;100.00;97802.81;5031669;28;20056;-76
2020/12/14 11:52:29;;;;;;;1.75;1.08;;;;;;;6.92;100.00;97793.03;5031768;28;20048;-76
2020/12/14 11:55:32;;;;;;;0.10;0.00;;;;;;;6.95;100.00;97800.34;5031789;28;20130;-77
2020/12/14 11:58:34;;;;;;;0.32;0.32;;;;;;;6.88;100.00;97807.13;5022995;28;20542;-78
2020/12/14 12:24:41;;;;;;;5.93;0.52;;;;;;;7.15;100.00;97822.22;5415920;24;20126;-74
2020/12/14 12:27:44;;;;;;;10.57;0.63;;;;;;;7.22;100.00;97830.03;4839809;29;20081;-74
2020/12/14 12:30:47;;;;;;;13.00;0.60;;;;;;;7.20;100.00;97821.50;4831334;29;20077;-73
2020/12/14 12:33:50;;;;;;;1.05;0.55;;;;;;;7.16;100.00;97821.00;4804655;29;20081;-73
2020/12/14 12:36:54;;;;;;;13.35;0.70;;;;;;;7.15;100.00;97819.47;4805375;29;20775;-73
2020/12/14 12:39:59;;;;;;;1.02;0.40;;;;;;;7.29;100.00;97821.25;4796132;29;20070;-73
2020/12/14 12:43:02;;;;;;;12.85;0.65;;;;;;;7.43;100.00;97820.22;4808742;29;20182;-73
2020/12/14 12:46:05;;;;;;;2.75;0.52;;;;;;;7.55;100.00;97830.06;4808994;29;20049;-73
2020/12/14 12:49:09;;;;;;;0.55;0.40;;;;;;;7.67;100.00;97816.22;4809006;29;20145;-73
2020/12/14 12:52:12;;;;;;;1.00;0.15;;;;;;;7.58;100.00;97817.19;4808476;29;20065;-74
2020/12/14 12:55:15;;;;;;;0.22;0.10;;;;;;;7.44;100.00;97819.00;4807235;29;20822;-73
2020/12/14 12:58:18;;;;;;;0.38;0.32;;;;;;;7.32;100.00;97822.25;4810187;29;20106;-74
2020/12/14 13:01:21;;;;;;;1.95;0.55;;;;;;;7.26;100.00;97833.31;4810226;29;20217;-73
2020/12/14 13:04:24;;;;;;;0.10;0.10;;;;;;;7.22;100.00;97830.03;4807256;29;20405;-73
2020/12/14 13:07:27;;;;;;;0.68;0.22;;;;;;;7.15;100.00;97833.31;4809652;29;20077;-75
2020/12/14 13:10:30;;;;;;;0.40;0.17;;;;;;;7.17;100.00;97841.84;4838659;29;20130;-74
2020/12/14 13:13:33;;;;;;;0.20;0.13;;;;;;;7.17;100.00;97850.16;4843258;29;20098;-73
2020/12/14 13:16:36;;;;;;;1.10;0.20;;;;;;;7.32;100.00;97839.59;4842496;29;20514;-73
2020/12/14 13:19:38;;;;;;;0.00;0.00;;;;;;;7.34;100.00;97839.13;4842652;29;20044;-74
2020/12/14 13:22:41;;;;;;;1.90;0.73;;;;;;;7.21;100.00;97850.66;4842942;29;20144;-74
2020/12/14 13:25:44;;;;;;;2.42;0.13;;;;;;;7.04;100.00;97836.06;4842448;29;20153;-74
2020/12/14 13:28:47;;;;;;;1.85;0.10;;;;;;;6.96;100.00;97846.09;4842856;29;20053;-73
2020/12/14 13:31:50;;;;;;;2.17;0.40;;;;;;;6.86;100.00;97847.59;4842789;29;20498;-73
2020/12/14 13:34:55;;;;;;;2.05;0.32;;;;;;;6.91;100.00;97846.09;4842554;29;20099;-73
2020/12/14 13:37:58;;;;;;;0.10;0.10;;;;;;;7.02;100.00;97849.63;4842748;29;20119;-73
2020/12/14 13:41:01;;;;;;;0.28;0.28;;;;;;;7.09;100.00;97838.09;4842823;29;20102;-74
2020/12/14 13:44:04;;;;;;;0.20;0.20;;;;;;;7.10;100.00;97839.59;4842392;29;20102;-74
2020/12/14 13:47:07;;;;;;;0.77;0.30;;;;;;;7.09;100.00;97827.00;4841602;29;20506;-76
2020/12/14 13:50:10;;;;;;;0.28;0.10;;;;;;;6.99;100.00;97844.34;4833543;29;20110;-74
2020/12/14 13:53:13;;;;;;;3.00;0.57;;;;;;;6.93;100.00;97857.44;4833672;29;20056;-74
2020/12/14 13:56:16;;;;;;;0.68;0.17;;;;;;;6.83;100.00;97851.34;4843308;29;20101;-73
2020/12/14 13:59:19;;;;;;;2.17;0.70;;;;;;;6.80;100.00;97852.34;4834699;29;20049;-74
2020/12/14 14:02:22;;;;;;;0.10;0.10;;;;;;;6.83;100.00;97848.59;4834069;29;20519;-73
2020/12/14 14:05:25;;;;;;;0.20;0.13;;;;;;;6.84;100.00;97850.09;4841813;29;20049;-73
2020/12/14 14:08:28;;;;;;;0.10;0.10;;;;;;;6.82;100.00;97852.63;4842499;29;20106;-74
2020/12/14 14:11:31;;;;;;;0.30;0.22;;;;;;;6.79;100.00;97837.78;4849029;29;20513;-74
2020/12/14 14:14:33;;;;;;;0.85;0.70;;;;;;;6.72;100.00;97843.00;4859865;29;20106;-73
2020/12/14 14:17:37;;;;;;;2.95;0.40;;;;;;;6.67;100.00;97835.47;4859955;29;20048;-74
2020/12/14 14:20:40;;;;;;;0.10;0.10;;;;;;;6.59;100.00;97837.19;4860080;29;20137;-74
2020/12/14 14:23:42;;;;;;;0.10;0.10;;;;;;;6.47;100.00;97855.00;4859643;29;20057;-74
2020/12/14 14:26:54;;;;;;;0.10;0.03;;;;;;;6.34;100.00;97868.50;4859412;29;20059;-73
2020/12/14 14:29:57;;;;;;;0.10;0.10;;;;;;;6.26;100.00;97875.75;4859939;29;20410;-73
2020/12/14 14:33:00;;;;;;;0.57;0.17;;;;;;;6.16;100.00;97871.66;4859583;29;20113;-74
2020/12/14 14:36:03;;;;;;;0.10;0.00;;;;;;;6.08;100.00;97872.16;4859845;29;20105;-73
2020/12/14 14:39:06;;;;;;;5.45;0.73;;;;;;;6.09;100.00;97873.66;4858533;29;20060;-72
2020/12/14 14:42:50;;;;;;;0.10;0.10;;;;;;;6.19;100.00;97884.50;4858723;29;20539;-73
2020/12/14 14:57:51;;;;;;;0.10;0.10;;;;;;;6.58;100.00;97893.75;4857790;29;20060;-72
2020/12/14 15:00:54;;;;;;;1.50;0.50;;;;;;;6.69;100.00;97904.88;4859596;29;20052;-72
2020/12/14 15:03:57;;;;;;;2.70;0.40;;;;;;;6.67;100.00;97902.59;4858646;29;20063;-71